Main page
METAR-TAF:

METAR-TAF

Airports :

Istrana Air Base

Treviso, Italy

latitude: 45-41N, longitude: 012-06E, elevation: 45 m

Current weather observation

The report was made 39 minutes ago, at 12:55 UTC
Calm wind
Temperature 16°C
Humidity 63%
Pressure 1025 hPa
Visibility 10 km or more
Scattered clouds at a height of 3000 ft

METAR: LIPS 151255Z 00000KT 9999 SCT030 16/09 Q1025 RMK SCT VIS MIN 9999 WIND THR26 00000KT WIND THR08 00000KT BLU

Time: 14:34 (13:34 UTC)

Forecast

The report was made 2 hours and 34 minutes ago, at 11:00 UTC
Forecast valid from 15 at 12 UTC to 15 at 21 UTC
Wind 5 kt from the Northeast
Visibility 10 km or more
Scattered clouds at a height of 3000 ft
Scattered clouds at a height of 8000 ft
Temporary
from 15 at 18 UTC to 15 at 21 UTC
Wind 10 kt from the Northeast

TAF: LIPS 151100Z 1512/1521 04005KT 9999 SCT030 SCT080 TEMPO 1518/1521 04010KT

Weather observations and forecasts of more than 4000 airports (METAR and TAF reports).

The available stations are represented by yellow and red dots on the map.

Hover mouse over dot to see the name of the station.

Then click to see weather observations and forecasts.

To change the map : click on the green buttons with a black cross to zoom in, on the green button with a dash to zoom out, or on the green arrows for adjacent maps.


METAR-TAF: